Dominia — ICFW — position and weather

sailwx.info

Track history (hours):
 
Tides and Currents Weather Stations Pressure Air Temp Water Temp Dewpoint Dewpoint Depression Visibility Wind Speed Wind Dir Waves Ship Positions

Dominia

Last reported at 2015-Jan-28 11:31 UTC. Time now 2015-Jan-28 12:11 UTC.
Position N 34°41' E 033°17'.

Length 176 m; draft 6.9 m.

Type: Ship (hazmat cat A). MMSI: 247273400.

Date/timePositionNaut miles runAvg speedWind from/ knotsBaromVisibWave heightAir tempDewpointWater temp
2015-Jan-28 11:31N 34°41' E 033°17'0 0.0
2015-Jan-28 10:31N 34°41' E 033°17'0 0.1
2015-Jan-28 09:31N 34°41' E 033°17'0 0.0
2015-Jan-28 08:31N 34°41' E 033°17'0 0.0
2015-Jan-28 07:33N 34°41' E 033°17'3 3.4
2015-Jan-28 06:33N 34°41' E 033°21'7 7.4
2015-Jan-28 05:33N 34°37' E 033°29'2 0.9
2015-Jan-28 03:08N 34°35' E 033°29'1 0.4
2015-Jan-28 00:14N 34°36' E 033°28'0 0.4
2015-Jan-27 23:17N 34°36' E 033°28'0 0.3
2015-Jan-27 22:17N 34°36' E 033°27'0 0.0
2015-Jan-27 21:29N 34°35' E 033°27'0 0.1
2015-Jan-27 20:32N 34°35' E 033°27'0 0.3
2015-Jan-27 19:32N 34°35' E 033°27'1 0.3
2015-Jan-27 16:26N 34°34' E 033°26'2 0.4
2015-Jan-27 12:32N 34°33' E 033°27'1 0.4
2015-Jan-27 10:20N 34°32' E 033°27'0 0.3
2015-Jan-27 09:32N 34°32' E 033°28'1 0.6
2015-Jan-27 08:32N 34°33' E 033°28'1 0.7
2015-Jan-27 07:08N 34°34' E 033°28'0 0.7
2015-Jan-27 06:32N 34°34' E 033°28'1 0.8
2015-Jan-27 05:14N 34°35' E 033°27'0 0.5
2015-Jan-27 04:32N 34°35' E 033°27'0 0.4
2015-Jan-27 03:32N 34°36' E 033°28'1 0.3
2015-Jan-27 01:11N 34°35' E 033°28'0 0.3
2015-Jan-27 00:29N 34°35' E 033°28'0 0.4
2015-Jan-26 23:29N 34°34' E 033°28'1 0.5
2015-Jan-26 22:20N 34°34' E 033°27'0 0.6
2015-Jan-26 21:32N 34°34' E 033°27'1 0.6
2015-Jan-26 20:29N 34°33' E 033°26'0 0.4
2015-Jan-26 19:33N 34°34' E 033°26'3 2.6
2015-Jan-26 18:33N 34°35' E 033°29'3 2.9
2015-Jan-26 17:34N 34°36' E 033°32'3 2.9
2015-Jan-26 16:34N 34°37' E 033°36'3 2.7
2015-Jan-26 15:25N 34°38' E 033°39'2 0.4
2015-Jan-26 10:15N 34°37' E 033°37'6 2.1
2015-Jan-26 07:12N 34°40' E 033°44'1 0.2
2015-Jan-26 04:23N 34°39' E 033°44'4 3.5
2015-Jan-26 03:13N 34°38' E 033°39'3 3.5
2015-Jan-26 02:26N 34°36' E 033°36'3 3.3
2015-Jan-26 01:30N 34°35' E 033°33'3 3.3
2015-Jan-26 00:33N 34°34' E 033°29'4 3.5
2015-Jan-25 23:34N 34°32' E 033°25'3 3.4
2015-Jan-25 22:34N 34°31' E 033°22'3 3.4
2015-Jan-25 21:34N 34°29' E 033°18'4 3.5
2015-Jan-25 20:34N 34°28' E 033°14'4 3.5
2015-Jan-25 19:33N 34°26' E 033°10'3 3.5
2015-Jan-25 18:33N 34°25' E 033°06'1 1.0
2015-Jan-25 17:33N 34°24' E 033°08'3 3.1
2015-Jan-25 16:31N 34°25' E 033°11'3 3.3
2015-Jan-25 15:34N 34°26' E 033°15'4 3.5
2015-Jan-25 14:33N 34°28' E 033°19'4 3.6
2015-Jan-25 13:34N 34°29' E 033°23'3 3.4
2015-Jan-25 12:34N 34°31' E 033°26'2 1.6
2015-Jan-25 11:34N 34°30' E 033°24'1 1.5
2015-Jan-25 10:34N 34°29' E 033°23'1 0.6
2015-Jan-25 09:34N 34°29' E 033°24'1 0.6
2015-Jan-25 08:34N 34°30' E 033°24'1 0.5
2015-Jan-25 07:34N 34°30' E 033°25'1 1.3
2015-Jan-25 06:34N 34°31' E 033°24'5 4.6
2015-Jan-25 05:34N 34°30' E 033°19'8 8.3
2015-Jan-25 04:33N 34°28' E 033°09'1211.9
2015-Jan-25 03:34N 34°26' E 032°55'1211.9
2015-Jan-25 02:34N 34°26' E 032°40'1512.0
2015-Jan-25 01:18N 34°26' E 032°22'912.0
2015-Jan-25 00:33N 34°26' E 032°11'29811.5
2015-Jan-23 22:33N 36°34' E 026°40'31 9.6
2015-Jan-23 19:17N 36°57' E 026°13'7 9.3
2015-Jan-23 18:31N 37°02' E 026°07'2010.2
2015-Jan-23 16:34N 37°15' E 025°48'10 9.8
2015-Jan-23 15:34N 37°24' E 025°43'10 9.8
2015-Jan-23 14:34N 37°34' E 025°43'9 9.3
2015-Jan-23 13:33N 37°43' E 025°43'12810.6
2015-Jan-23 01:31N 39°51' E 025°44'1212.6
2015-Jan-23 00:33N 39°58' E 025°56'3712.0
2015-Jan-22 21:31N 40°19' E 026°36'142 3.0
2015-Jan-20 22:31N 41°25' E 029°21'8 8.3
2015-Jan-20 21:33N 41°29' E 029°31'1 0.3
2015-Jan-20 20:04N 41°30' E 029°31'1 1.0
2015-Jan-20 19:14N 41°30' E 029°30'1 1.1
2015-Jan-20 18:33N 41°30' E 029°29'1 1.1
2015-Jan-20 17:33N 41°29' E 029°28'1 1.0
2015-Jan-20 16:33N 41°29' E 029°26'1 1.0
2015-Jan-20 15:33N 41°29' E 029°25'1 1.2
2015-Jan-20 14:33N 41°29' E 029°23'1 1.2
2015-Jan-20 13:33N 41°30' E 029°22'1 1.2
2015-Jan-20 12:33N 41°30' E 029°20'4 0.2
2015-Jan-19 13:27N 41°28' E 029°26'1010.8
2015-Jan-19 12:32N 41°32' E 029°38'23811.9
2015-Jan-18 16:26N 43°20' E 034°26'1212.1
2015-Jan-18 15:27N 43°26' E 034°40'1111.9
2015-Jan-18 14:34N 43°30' E 034°53'1311.8
2015-Jan-18 13:28N 43°36' E 035°09'1112.0
2015-Jan-18 12:33N 43°41' E 035°22'  
Track history (hours):
 
Tides and Currents Weather Stations Pressure Air Temp Water Temp Dewpoint Dewpoint Depression Visibility Wind Speed Wind Dir Waves Ship Positions

Dominia

Last reported at 2015-Jan-28 11:31 UTC. Time now 2015-Jan-28 12:11 UTC.
Position N 34°41' E 033°17'.

Length 176 m; draft 6.9 m.

Type: Ship (hazmat cat A). MMSI: 247273400.

Date/timePositionNaut miles runAvg speedWind from/ knotsBaromVisibWave heightAir tempDewpointWater temp
2015-Jan-28 11:31N 34°41' E 033°17'0 0.0
2015-Jan-28 10:31N 34°41' E 033°17'0 0.1
2015-Jan-28 09:31N 34°41' E 033°17'0 0.0
2015-Jan-28 08:31N 34°41' E 033°17'0 0.0
2015-Jan-28 07:33N 34°41' E 033°17'3 3.4
2015-Jan-28 06:33N 34°41' E 033°21'7 7.4
2015-Jan-28 05:33N 34°37' E 033°29'2 0.9
2015-Jan-28 03:08N 34°35' E 033°29'1 0.4
2015-Jan-28 00:14N 34°36' E 033°28'0 0.4
2015-Jan-27 23:17N 34°36' E 033°28'0 0.3
2015-Jan-27 22:17N 34°36' E 033°27'0 0.0
2015-Jan-27 21:29N 34°35' E 033°27'0 0.1
2015-Jan-27 20:32N 34°35' E 033°27'0 0.3
2015-Jan-27 19:32N 34°35' E 033°27'1 0.3
2015-Jan-27 16:26N 34°34' E 033°26'2 0.4
2015-Jan-27 12:32N 34°33' E 033°27'1 0.4
2015-Jan-27 10:20N 34°32' E 033°27'0 0.3
2015-Jan-27 09:32N 34°32' E 033°28'1 0.6
2015-Jan-27 08:32N 34°33' E 033°28'1 0.7
2015-Jan-27 07:08N 34°34' E 033°28'0 0.7
2015-Jan-27 06:32N 34°34' E 033°28'1 0.8
2015-Jan-27 05:14N 34°35' E 033°27'0 0.5
2015-Jan-27 04:32N 34°35' E 033°27'0 0.4
2015-Jan-27 03:32N 34°36' E 033°28'1 0.3
2015-Jan-27 01:11N 34°35' E 033°28'0 0.3
2015-Jan-27 00:29N 34°35' E 033°28'0 0.4
2015-Jan-26 23:29N 34°34' E 033°28'1 0.5
2015-Jan-26 22:20N 34°34' E 033°27'0 0.6
2015-Jan-26 21:32N 34°34' E 033°27'1 0.6
2015-Jan-26 20:29N 34°33' E 033°26'0 0.4
2015-Jan-26 19:33N 34°34' E 033°26'3 2.6
2015-Jan-26 18:33N 34°35' E 033°29'3 2.9
2015-Jan-26 17:34N 34°36' E 033°32'3 2.9
2015-Jan-26 16:34N 34°37' E 033°36'3 2.7
2015-Jan-26 15:25N 34°38' E 033°39'2 0.4
2015-Jan-26 10:15N 34°37' E 033°37'6 2.1
2015-Jan-26 07:12N 34°40' E 033°44'1 0.2
2015-Jan-26 04:23N 34°39' E 033°44'4 3.5
2015-Jan-26 03:13N 34°38' E 033°39'3 3.5
2015-Jan-26 02:26N 34°36' E 033°36'3 3.3
2015-Jan-26 01:30N 34°35' E 033°33'3 3.3
2015-Jan-26 00:33N 34°34' E 033°29'4 3.5
2015-Jan-25 23:34N 34°32' E 033°25'3 3.4
2015-Jan-25 22:34N 34°31' E 033°22'3 3.4
2015-Jan-25 21:34N 34°29' E 033°18'4 3.5
2015-Jan-25 20:34N 34°28' E 033°14'4 3.5
2015-Jan-25 19:33N 34°26' E 033°10'3 3.5
2015-Jan-25 18:33N 34°25' E 033°06'1 1.0
2015-Jan-25 17:33N 34°24' E 033°08'3 3.1
2015-Jan-25 16:31N 34°25' E 033°11'3 3.3
2015-Jan-25 15:34N 34°26' E 033°15'4 3.5
2015-Jan-25 14:33N 34°28' E 033°19'4 3.6
2015-Jan-25 13:34N 34°29' E 033°23'3 3.4
2015-Jan-25 12:34N 34°31' E 033°26'2 1.6
2015-Jan-25 11:34N 34°30' E 033°24'1 1.5
2015-Jan-25 10:34N 34°29' E 033°23'1 0.6
2015-Jan-25 09:34N 34°29' E 033°24'1 0.6
2015-Jan-25 08:34N 34°30' E 033°24'1 0.5
2015-Jan-25 07:34N 34°30' E 033°25'1 1.3
2015-Jan-25 06:34N 34°31' E 033°24'5 4.6
2015-Jan-25 05:34N 34°30' E 033°19'8 8.3
2015-Jan-25 04:33N 34°28' E 033°09'1211.9
2015-Jan-25 03:34N 34°26' E 032°55'1211.9
2015-Jan-25 02:34N 34°26' E 032°40'1512.0
2015-Jan-25 01:18N 34°26' E 032°22'912.0
2015-Jan-25 00:33N 34°26' E 032°11'29811.5
2015-Jan-23 22:33N 36°34' E 026°40'31 9.6
2015-Jan-23 19:17N 36°57' E 026°13'7 9.3
2015-Jan-23 18:31N 37°02' E 026°07'2010.2
2015-Jan-23 16:34N 37°15' E 025°48'10 9.8
2015-Jan-23 15:34N 37°24' E 025°43'10 9.8
2015-Jan-23 14:34N 37°34' E 025°43'9 9.3
2015-Jan-23 13:33N 37°43' E 025°43'12810.6
2015-Jan-23 01:31N 39°51' E 025°44'1212.6
2015-Jan-23 00:33N 39°58' E 025°56'3712.0
2015-Jan-22 21:31N 40°19' E 026°36'142 3.0
2015-Jan-20 22:31N 41°25' E 029°21'8 8.3
2015-Jan-20 21:33N 41°29' E 029°31'1 0.3
2015-Jan-20 20:04N 41°30' E 029°31'1 1.0
2015-Jan-20 19:14N 41°30' E 029°30'1 1.1
2015-Jan-20 18:33N 41°30' E 029°29'1 1.1
2015-Jan-20 17:33N 41°29' E 029°28'1 1.0
2015-Jan-20 16:33N 41°29' E 029°26'1 1.0
2015-Jan-20 15:33N 41°29' E 029°25'1 1.2
2015-Jan-20 14:33N 41°29' E 029°23'1 1.2
2015-Jan-20 13:33N 41°30' E 029°22'1 1.2
2015-Jan-20 12:33N 41°30' E 029°20'4 0.2
2015-Jan-19 13:27N 41°28' E 029°26'1010.8
2015-Jan-19 12:32N 41°32' E 029°38'23811.9
2015-Jan-18 16:26N 43°20' E 034°26'1212.1
2015-Jan-18 15:27N 43°26' E 034°40'1111.9
2015-Jan-18 14:34N 43°30' E 034°53'1311.8
2015-Jan-18 13:28N 43°36' E 035°09'1112.0
2015-Jan-18 12:33N 43°41' E 035°22'  

Dump ship's entire track history